createdAt,value
2022-11-24T00:01:18.954Z,5.45
2022-11-24T00:03:46.970Z,4.85
2022-11-24T00:06:15.456Z,5.13
2022-11-24T00:08:44.096Z,4.60
2022-11-24T00:11:16.662Z,4.80
2022-11-24T00:13:44.025Z,5.75
2022-11-24T00:16:13.052Z,4.78
2022-11-24T00:18:40.860Z,4.90
2022-11-24T00:21:07.518Z,4.70
2022-11-24T00:23:35.386Z,5.22
2022-11-24T00:26:10.929Z,5.00
2022-11-24T00:28:38.242Z,5.57
2022-11-24T00:31:16.985Z,5.03
2022-11-24T00:33:44.949Z,4.95
2022-11-24T00:36:11.474Z,5.10
2022-11-24T00:38:37.826Z,5.05
2022-11-24T00:41:04.383Z,5.15
2022-11-24T00:43:30.744Z,5.03
2022-11-24T00:45:58.278Z,5.65
2022-11-24T00:48:24.702Z,5.00
2022-11-24T00:51:06.618Z,4.85
2022-11-24T00:53:33.401Z,5.18
2022-11-24T00:55:59.954Z,5.43
2022-11-24T00:58:26.744Z,5.13
2022-11-24T01:00:53.306Z,5.13
2022-11-24T01:03:21.130Z,4.88
2022-11-24T01:05:47.506Z,5.18
2022-11-24T01:08:14.933Z,5.07
2022-11-24T01:10:41.328Z,5.78
2022-11-24T01:13:07.685Z,5.45
2022-11-24T01:15:36.239Z,5.65
2022-11-24T01:18:03.970Z,5.68
2022-11-24T01:20:31.395Z,6.10
2022-11-24T01:22:57.815Z,5.00
2022-11-24T01:25:24.243Z,4.90
2022-11-24T01:27:50.694Z,5.03
2022-11-24T01:30:17.310Z,5.88
2022-11-24T01:32:43.757Z,5.63
2022-11-24T01:35:10.242Z,5.80
2022-11-24T01:37:36.649Z,5.38
2022-11-24T01:40:04.460Z,5.25
2022-11-24T01:42:43.238Z,4.65
2022-11-24T01:45:31.237Z,4.70
2022-11-24T01:47:58.100Z,5.10
2022-11-24T01:50:24.828Z,5.45
2022-11-24T01:52:53.879Z,5.22
2022-11-24T01:55:29.857Z,5.72
2022-11-24T01:58:06.265Z,6.05
2022-11-24T02:00:37.131Z,5.85
2022-11-24T02:03:03.818Z,5.07
2022-11-24T02:05:49.787Z,6.95
2022-11-24T02:08:45.051Z,5.57
2022-11-24T02:11:11.412Z,5.38
2022-11-24T02:13:39.954Z,5.80
2022-11-24T02:16:09.176Z,5.13
2022-11-24T02:18:38.287Z,5.97
2022-11-24T02:21:05.850Z,4.70
2022-11-24T02:23:47.336Z,5.07
2022-11-24T02:26:22.442Z,5.40
2022-11-24T02:28:49.930Z,5.10
2022-11-24T02:31:16.447Z,4.68
2022-11-24T02:33:43.936Z,5.03
2022-11-24T02:36:10.352Z,5.50
2022-11-24T02:38:36.792Z,5.70
2022-11-24T02:41:07.606Z,5.22
2022-11-24T02:43:43.390Z,6.10
2022-11-24T02:46:10.984Z,5.88
2022-11-24T02:48:38.639Z,5.13
2022-11-24T02:51:05.391Z,5.40
2022-11-24T02:53:31.890Z,5.25
2022-11-24T02:55:58.248Z,5.35
2022-11-24T02:58:24.679Z,5.35
2022-11-24T03:00:54.122Z,5.10
2022-11-24T03:03:21.546Z,6.75
2022-11-24T03:05:48.014Z,5.78
2022-11-24T03:08:14.400Z,5.68
2022-11-24T03:10:40.884Z,5.80
2022-11-24T03:13:07.340Z,5.88
2022-11-24T03:15:34.288Z,5.90
2022-11-24T03:18:00.712Z,5.72
2022-11-24T03:20:27.277Z,5.93
2022-11-24T03:22:53.650Z,5.70
2022-11-24T03:25:20.130Z,5.43
2022-11-24T03:27:46.935Z,6.10
2022-11-24T03:30:14.501Z,5.75
2022-11-24T03:32:41.863Z,5.28
2022-11-24T03:35:09.034Z,5.55
2022-11-24T03:37:35.399Z,5.70
2022-11-24T03:40:01.941Z,5.00
2022-11-24T03:42:28.280Z,5.47
2022-11-24T03:44:54.747Z,5.72
2022-11-24T03:47:21.091Z,5.45
2022-11-24T03:49:47.555Z,5.28
2022-11-24T03:52:13.915Z,6.53
2022-11-24T03:54:40.336Z,6.40
2022-11-24T03:57:07.829Z,5.85
2022-11-24T03:59:34.217Z,5.65
2022-11-24T04:02:00.636Z,5.10
2022-11-24T04:04:27.477Z,5.55
2022-11-24T04:06:53.824Z,6.03
2022-11-24T04:09:20.282Z,5.45
2022-11-24T04:12:05.422Z,5.20
2022-11-24T04:14:32.124Z,5.88
2022-11-24T04:16:58.657Z,5.88
2022-11-24T04:19:25.015Z,5.22
2022-11-24T04:21:51.420Z,5.68
2022-11-24T04:24:17.775Z,5.38
2022-11-24T04:26:44.207Z,5.40
2022-11-24T04:29:10.702Z,5.45
2022-11-24T04:31:37.086Z,6.38
2022-11-24T04:34:03.704Z,5.60
2022-11-24T04:36:30.217Z,5.78
2022-11-24T04:39:24.541Z,5.55
2022-11-24T04:41:43.063Z,6.00
2022-11-24T04:44:09.473Z,5.50
2022-11-24T04:46:35.877Z,5.57
2022-11-24T04:49:02.687Z,5.07
2022-11-24T04:51:29.044Z,5.28
2022-11-24T04:53:55.430Z,5.45
2022-11-24T04:56:21.771Z,6.13
2022-11-24T04:58:49.432Z,5.32
2022-11-24T05:01:15.864Z,5.60
2022-11-24T05:03:42.316Z,5.22
2022-11-24T05:06:08.878Z,5.30
2022-11-24T05:08:35.351Z,6.47
2022-11-24T05:11:06.280Z,6.38
2022-11-24T05:13:32.746Z,5.35
2022-11-24T05:16:00.172Z,5.55
2022-11-24T05:18:26.739Z,5.90
2022-11-24T05:20:53.091Z,5.85
2022-11-24T05:23:19.508Z,6.28
2022-11-24T05:25:47.801Z,6.32
2022-11-24T05:28:14.465Z,6.47
2022-11-24T05:30:41.376Z,6.22
2022-11-24T05:33:12.000Z,6.03
2022-11-24T05:35:38.593Z,5.50
2022-11-24T05:38:04.949Z,6.05
2022-11-24T05:40:31.856Z,5.00
2022-11-24T05:42:58.241Z,5.63
2022-11-24T05:45:24.782Z,5.75
2022-11-24T05:47:51.471Z,5.88
2022-11-24T05:50:20.011Z,5.45
2022-11-24T05:52:46.701Z,6.30
2022-11-24T05:55:15.040Z,5.70
2022-11-24T05:57:42.199Z,6.55
2022-11-24T06:00:10.050Z,6.03
2022-11-24T06:02:39.743Z,6.47
2022-11-24T06:05:06.630Z,5.70
2022-11-24T06:07:33.027Z,5.82
2022-11-24T06:09:59.518Z,5.68
2022-11-24T06:12:25.861Z,6.22
2022-11-24T06:14:52.449Z,5.45
2022-11-24T06:17:18.799Z,7.50
2022-11-24T06:19:47.877Z,5.78
2022-11-24T06:22:14.306Z,5.72
2022-11-24T06:24:40.743Z,5.55
2022-11-24T06:27:07.583Z,6.50
2022-11-24T06:29:33.914Z,5.90
2022-11-24T06:32:00.460Z,5.72
2022-11-24T06:34:26.846Z,5.72
2022-11-24T06:36:53.436Z,6.30
2022-11-24T06:39:19.798Z,6.50
2022-11-24T06:41:46.284Z,6.70
2022-11-24T06:44:12.788Z,6.47
2022-11-24T06:46:39.155Z,6.25
2022-11-24T06:49:05.555Z,6.35
2022-11-24T06:51:32.018Z,5.97
2022-11-24T06:53:58.381Z,6.18
2022-11-24T06:56:24.871Z,6.53
2022-11-24T06:58:52.881Z,6.05
2022-11-24T07:01:24.981Z,6.60
2022-11-24T07:03:52.415Z,6.28
2022-11-24T07:06:20.040Z,6.13
2022-11-24T07:08:46.868Z,6.32
2022-11-24T07:11:19.558Z,6.82
2022-11-24T07:13:46.958Z,6.38
2022-11-24T07:16:18.862Z,6.72
2022-11-24T07:18:47.059Z,6.35
2022-11-24T07:21:14.160Z,5.95
2022-11-24T07:23:40.761Z,5.97
2022-11-24T07:26:08.931Z,6.50
2022-11-24T07:28:36.789Z,6.72
2022-11-24T07:31:11.817Z,6.80
2022-11-24T07:33:38.741Z,6.18
2022-11-24T07:36:09.585Z,6.60
2022-11-24T07:38:36.215Z,5.75
2022-11-24T07:41:04.775Z,6.32
2022-11-24T07:43:32.850Z,6.40
2022-11-24T07:45:59.898Z,6.43
2022-11-24T07:48:27.006Z,7.30
2022-11-24T07:50:56.072Z,7.13
2022-11-24T07:53:22.927Z,7.50
2022-11-24T07:56:00.364Z,6.78
2022-11-24T07:58:32.325Z,7.00
2022-11-24T08:00:59.874Z,7.38
2022-11-24T08:03:26.537Z,7.50
2022-11-24T08:08:43.488Z,6.50
2022-11-24T08:11:12.534Z,7.38
2022-11-24T08:13:39.623Z,6.90
2022-11-24T08:16:11.707Z,6.88
2022-11-24T08:18:38.987Z,6.43
2022-11-24T08:21:06.627Z,7.43
2022-11-24T08:23:33.670Z,7.68
2022-11-24T08:26:05.070Z,7.07
2022-11-24T08:28:32.875Z,7.40
2022-11-24T08:31:07.364Z,6.70
2022-11-24T08:33:33.774Z,7.28
2022-11-24T08:36:12.285Z,8.13
2022-11-24T08:38:39.059Z,7.50
2022-11-24T08:41:10.955Z,7.70
2022-11-24T08:43:37.724Z,8.05
2022-11-24T08:46:11.029Z,7.25
2022-11-24T08:48:37.883Z,7.45
2022-11-24T08:51:12.233Z,8.50
2022-11-24T08:53:39.858Z,7.00
2022-11-24T08:56:07.110Z,7.10
2022-11-24T08:58:33.697Z,7.68
2022-11-24T09:01:10.173Z,6.72
2022-11-24T09:03:37.708Z,6.95
2022-11-24T09:06:04.219Z,6.70
2022-11-24T09:08:31.109Z,6.63
2022-11-24T09:11:01.914Z,7.05
2022-11-24T09:13:28.694Z,7.22
2022-11-24T09:15:55.168Z,7.32
2022-11-24T09:18:22.757Z,6.82
2022-11-24T09:20:50.803Z,6.25
2022-11-24T09:23:17.150Z,7.55
2022-11-24T09:25:43.574Z,6.65
2022-11-24T09:28:09.927Z,7.20
2022-11-24T09:30:36.339Z,7.38
2022-11-24T09:33:02.907Z,7.70
2022-11-24T09:35:29.279Z,6.90
2022-11-24T09:37:55.717Z,7.10
2022-11-24T09:40:22.711Z,7.57
2022-11-24T09:43:35.186Z,7.53
2022-11-24T09:46:30.576Z,7.20
2022-11-24T09:48:58.282Z,7.55
2022-11-24T09:51:29.307Z,7.28
2022-11-24T09:54:03.206Z,6.38
2022-11-24T09:56:34.472Z,6.40
2022-11-24T09:59:24.659Z,6.95
2022-11-24T10:01:52.263Z,8.18
2022-11-24T10:04:39.166Z,7.00
2022-11-24T10:07:30.379Z,6.15
2022-11-24T10:10:07.822Z,6.13
2022-11-24T10:12:48.743Z,7.40
2022-11-24T10:15:33.496Z,5.97
2022-11-24T10:18:14.940Z,6.15
2022-11-24T10:21:01.877Z,7.05
2022-11-24T10:24:08.870Z,5.68
2022-11-24T10:26:38.172Z,5.30
2022-11-24T10:29:26.725Z,6.20
2022-11-24T10:31:57.811Z,6.07
2022-11-24T10:34:34.986Z,6.38
2022-11-24T10:37:25.985Z,6.63
2022-11-24T10:40:21.348Z,6.60
2022-11-24T10:42:56.338Z,6.65
2022-11-24T10:45:22.932Z,5.95
2022-11-24T10:47:49.535Z,6.75
2022-11-24T10:50:23.217Z,6.53
2022-11-24T10:53:01.705Z,6.13
2022-11-24T10:55:57.114Z,6.88
2022-11-24T10:58:38.596Z,5.65
2022-11-24T11:01:14.367Z,6.80
2022-11-24T11:03:59.579Z,6.72
2022-11-24T11:06:31.166Z,7.53
2022-11-24T11:09:06.836Z,5.85
2022-11-24T11:11:39.073Z,5.93
2022-11-24T11:14:11.049Z,6.68
2022-11-24T11:16:43.530Z,6.03
2022-11-24T11:22:24.558Z,6.40
2022-11-24T11:25:07.377Z,5.78
2022-11-24T11:27:33.756Z,6.30
2022-11-24T11:35:48.253Z,6.00
2022-11-24T11:38:15.138Z,6.45
2022-11-24T11:40:43.675Z,6.25
2022-11-24T11:43:27.145Z,6.07
2022-11-24T11:46:03.510Z,6.45
2022-11-24T11:48:43.216Z,6.28
2022-11-24T11:51:26.107Z,5.80
2022-11-24T11:54:20.511Z,6.47
2022-11-24T11:57:01.513Z,6.53
2022-11-24T11:59:54.975Z,6.05
2022-11-24T12:02:51.662Z,6.28
2022-11-24T12:05:28.451Z,6.93
2022-11-24T12:08:21.594Z,6.68
2022-11-24T12:10:59.763Z,7.18
2022-11-24T12:13:45.685Z,7.28
2022-11-24T12:16:29.649Z,7.75
2022-11-24T12:19:05.208Z,6.88
2022-11-24T12:21:58.696Z,6.75
2022-11-24T12:24:34.422Z,6.70
2022-11-24T12:27:31.256Z,7.22
2022-11-24T12:30:13.334Z,7.47
2022-11-24T12:32:58.203Z,6.85
2022-11-24T12:36:11.497Z,6.75
2022-11-24T12:39:02.269Z,6.70
2022-11-24T12:41:42.188Z,7.22
2022-11-24T12:44:30.643Z,7.07
2022-11-24T12:47:09.447Z,5.55
2022-11-24T12:49:57.076Z,6.20
2022-11-24T12:52:31.053Z,5.95
2022-11-24T12:54:58.770Z,6.80
2022-11-24T12:57:34.958Z,6.22
2022-11-24T13:00:19.279Z,5.63
2022-11-24T13:03:06.845Z,6.28
2022-11-24T13:05:58.684Z,6.13
2022-11-24T13:08:27.897Z,6.10
2022-11-24T13:10:56.190Z,8.40
2022-11-24T13:13:28.647Z,7.35
2022-11-24T13:16:34.748Z,6.28
2022-11-24T13:18:56.809Z,6.70
2022-11-24T13:21:31.670Z,6.28
2022-11-24T13:24:05.509Z,7.03
2022-11-24T13:26:47.223Z,7.70
2022-11-24T13:29:30.490Z,6.18
2022-11-24T13:32:02.907Z,8.13
2022-11-24T13:34:38.597Z,7.07
2022-11-24T13:37:37.487Z,7.75
2022-11-24T13:40:13.149Z,7.70
2022-11-24T13:42:54.616Z,7.28
2022-11-24T13:45:39.336Z,6.25
2022-11-24T13:48:21.421Z,6.88
2022-11-24T13:50:52.226Z,6.03
2022-11-24T13:53:37.301Z,6.55
2022-11-24T13:56:21.178Z,6.43
2022-11-24T13:59:27.805Z,6.50
2022-11-24T14:01:58.277Z,7.45
2022-11-24T14:04:31.804Z,6.45
2022-11-24T14:07:14.244Z,6.38
2022-11-24T14:09:44.628Z,7.80
2022-11-24T14:12:19.312Z,6.70
2022-11-24T14:14:47.856Z,8.10
2022-11-24T14:17:19.114Z,8.70
2022-11-24T14:19:48.043Z,6.25
2022-11-24T14:22:21.833Z,6.65
2022-11-24T14:24:56.647Z,6.57
2022-11-24T14:27:32.275Z,6.65
2022-11-24T14:30:02.037Z,6.95
2022-11-24T14:32:28.768Z,7.47
2022-11-24T14:34:56.701Z,6.30
2022-11-24T14:37:23.215Z,7.00
2022-11-24T14:39:49.571Z,6.43
2022-11-24T14:42:19.115Z,6.63
2022-11-24T14:44:48.200Z,6.82
2022-11-24T14:47:30.818Z,6.50
2022-11-24T14:50:07.639Z,7.40
2022-11-24T14:52:35.197Z,7.40
2022-11-24T14:55:21.535Z,7.88
2022-11-24T14:57:48.192Z,7.22
2022-11-24T15:00:20.779Z,7.35
2022-11-24T15:02:51.927Z,6.93
2022-11-24T15:05:20.550Z,7.15
2022-11-24T15:07:49.294Z,7.80
2022-11-24T15:10:38.576Z,7.32
2022-11-24T15:13:15.226Z,6.38
2022-11-24T15:15:49.313Z,5.82
2022-11-24T15:18:27.650Z,9.05
2022-11-24T15:20:54.704Z,6.90
2022-11-24T15:23:35.575Z,6.38
2022-11-24T15:26:01.899Z,6.72
2022-11-24T15:28:31.723Z,6.93
2022-11-24T15:31:06.312Z,6.25
2022-11-24T15:33:32.895Z,6.47
2022-11-24T15:35:59.801Z,7.07
2022-11-24T15:38:26.361Z,6.03
2022-11-24T15:40:55.675Z,7.03
2022-11-24T15:43:36.275Z,6.03
2022-11-24T15:46:03.797Z,6.32
2022-11-24T15:48:30.162Z,6.25
2022-11-24T15:50:58.001Z,6.05
2022-11-24T15:53:30.251Z,6.63
2022-11-24T15:55:57.615Z,6.20
2022-11-24T15:58:24.413Z,6.50
2022-11-24T16:00:53.400Z,7.80
2022-11-24T16:06:15.027Z,6.60
2022-11-24T16:08:43.420Z,6.95
2022-11-24T16:11:09.901Z,7.38
2022-11-24T16:13:36.319Z,9.20
2022-11-24T16:16:03.430Z,8.02
2022-11-24T16:18:31.496Z,7.22
2022-11-24T16:20:58.472Z,6.85
2022-11-24T16:23:24.930Z,6.55
2022-11-24T16:25:51.269Z,7.38
2022-11-24T16:28:17.916Z,7.43
2022-11-24T16:30:48.748Z,7.47
2022-11-24T16:33:15.429Z,7.28
2022-11-24T16:35:41.777Z,7.70
2022-11-24T16:38:15.468Z,8.25
2022-11-24T16:40:41.859Z,7.35
2022-11-24T16:43:08.201Z,8.20
2022-11-24T16:45:36.148Z,8.30
2022-11-24T16:48:05.080Z,6.82
2022-11-24T16:50:31.445Z,8.27
2022-11-24T16:52:57.935Z,7.50
2022-11-24T16:55:24.270Z,7.90
2022-11-24T16:57:50.751Z,7.97
2022-11-24T17:00:17.738Z,7.25
2022-11-24T17:02:44.204Z,6.47
2022-11-24T17:05:10.693Z,7.25
2022-11-24T17:07:37.135Z,7.15
2022-11-24T17:10:03.928Z,7.00
2022-11-24T17:12:30.314Z,7.07
2022-11-24T17:15:16.781Z,7.22
2022-11-24T17:18:08.275Z,7.25
2022-11-24T17:20:31.460Z,7.30
2022-11-24T17:22:57.802Z,7.07
2022-11-24T17:25:24.219Z,7.80
2022-11-24T17:27:51.577Z,6.85
2022-11-24T17:30:18.003Z,6.63
2022-11-24T17:32:44.451Z,7.75
2022-11-24T17:35:11.859Z,8.27
2022-11-24T17:37:38.275Z,7.70
2022-11-24T17:40:27.398Z,8.88
2022-11-24T17:42:53.453Z,10.18
2022-11-24T17:45:19.892Z,10.10
2022-11-24T17:47:46.376Z,9.75
2022-11-24T17:50:12.806Z,9.77
2022-11-24T17:52:39.227Z,9.75
2022-11-24T17:55:05.930Z,10.15
2022-11-24T17:57:32.372Z,7.80
2022-11-24T17:59:58.719Z,8.05
2022-11-24T18:02:25.198Z,7.90
2022-11-24T18:04:51.610Z,9.27
2022-11-24T18:07:18.019Z,9.38
2022-11-24T18:09:44.410Z,8.70
2022-11-24T18:12:10.849Z,8.55
2022-11-24T18:14:37.509Z,9.45
2022-11-24T18:17:04.326Z,9.75
2022-11-24T18:19:30.895Z,8.40
2022-11-24T18:21:57.327Z,8.55
2022-11-24T18:24:24.373Z,8.40
2022-11-24T18:26:50.805Z,9.85
2022-11-24T18:29:17.238Z,9.52
2022-11-24T18:31:43.624Z,9.40
2022-11-24T18:34:09.982Z,9.35
2022-11-24T18:36:36.435Z,9.90
2022-11-24T18:39:04.575Z,9.23
2022-11-24T18:41:31.758Z,8.88
2022-11-24T18:44:02.083Z,9.88
2022-11-24T18:46:28.722Z,9.55
2022-11-24T18:48:55.086Z,10.05
2022-11-24T18:51:23.021Z,10.10
2022-11-24T18:53:54.203Z,11.57
2022-11-24T18:56:21.003Z,10.15
2022-11-24T18:58:47.484Z,10.75
2022-11-24T19:01:16.494Z,10.75
2022-11-24T19:03:49.339Z,9.93
2022-11-24T19:06:21.094Z,11.48
2022-11-24T19:08:47.938Z,10.20
2022-11-24T19:11:19.822Z,15.80
2022-11-24T19:13:47.684Z,10.15
2022-11-24T19:16:15.551Z,10.90
2022-11-24T19:18:42.365Z,9.90
2022-11-24T19:21:08.874Z,9.80
2022-11-24T19:23:35.663Z,9.93
2022-11-24T19:26:03.691Z,10.10
2022-11-24T19:28:30.335Z,11.45
2022-11-24T19:31:08.223Z,10.70
2022-11-24T19:33:35.003Z,11.88
2022-11-24T19:36:06.274Z,12.57
2022-11-24T19:38:33.815Z,11.35
2022-11-24T19:41:21.816Z,10.63
2022-11-24T19:43:48.490Z,10.05
2022-11-24T19:46:18.695Z,10.48
2022-11-24T19:48:48.543Z,10.27
2022-11-24T19:51:17.498Z,11.20
2022-11-24T19:53:45.191Z,10.52
2022-11-24T19:56:22.576Z,11.57
2022-11-24T19:58:49.968Z,11.75
2022-11-24T20:01:30.848Z,11.93
2022-11-24T20:04:05.012Z,11.25
2022-11-24T20:06:34.427Z,10.65
2022-11-24T20:09:00.998Z,11.77
2022-11-24T20:11:28.539Z,12.30
2022-11-24T20:13:55.258Z,12.15
2022-11-24T20:16:27.897Z,12.45
2022-11-24T20:18:56.270Z,12.73
2022-11-24T20:21:25.207Z,12.02
2022-11-24T20:23:54.796Z,11.02
2022-11-24T20:26:25.937Z,11.18
2022-11-24T20:28:56.124Z,12.75
2022-11-24T20:31:26.990Z,15.20
2022-11-24T20:33:55.221Z,14.38
2022-11-24T20:36:24.247Z,14.27
2022-11-24T20:38:52.587Z,15.10
2022-11-24T20:41:25.029Z,14.88
2022-11-24T20:43:53.089Z,15.13
2022-11-24T20:46:22.645Z,14.18
2022-11-24T20:48:49.485Z,13.35
2022-11-24T20:51:21.635Z,13.70
2022-11-24T20:53:49.380Z,13.35
2022-11-24T20:56:19.829Z,13.63
2022-11-24T20:58:46.660Z,12.65
2022-11-24T21:01:16.733Z,13.07
2022-11-24T21:03:44.858Z,13.25
2022-11-24T21:06:12.725Z,12.52
2022-11-24T21:08:41.159Z,12.68
2022-11-24T21:11:11.136Z,12.43
2022-11-24T21:13:39.165Z,12.52
2022-11-24T21:16:19.912Z,12.27
2022-11-24T21:18:48.042Z,12.20
2022-11-24T21:21:14.571Z,12.35
2022-11-24T21:23:40.954Z,11.90
2022-11-24T21:26:12.996Z,11.80
2022-11-24T21:28:42.202Z,11.80
2022-11-24T21:31:13.997Z,12.40
2022-11-24T21:33:42.087Z,12.02
2022-11-24T21:36:08.966Z,11.50
2022-11-24T21:38:35.487Z,11.73
2022-11-24T21:41:06.743Z,10.82
2022-11-24T21:43:33.361Z,11.15
2022-11-24T21:46:01.756Z,12.27
2022-11-24T21:48:29.722Z,12.68
2022-11-24T21:50:58.949Z,11.55
2022-11-24T21:53:26.374Z,12.25
2022-11-24T21:56:05.096Z,11.35
2022-11-24T21:58:32.608Z,12.23
2022-11-24T22:01:05.042Z,11.52
2022-11-24T22:03:31.574Z,11.15
2022-11-24T22:05:59.853Z,11.30
2022-11-24T22:08:28.333Z,10.90
2022-11-24T22:11:01.153Z,11.63
2022-11-24T22:13:28.414Z,11.80
2022-11-24T22:16:04.140Z,12.23
2022-11-24T22:18:35.869Z,10.32
2022-11-24T22:21:05.423Z,11.80
2022-11-24T22:23:33.058Z,12.00
2022-11-24T22:26:12.659Z,10.60
2022-11-24T22:28:39.442Z,11.57
2022-11-24T22:31:08.322Z,12.32
2022-11-24T22:33:34.890Z,12.45
2022-11-24T22:36:02.105Z,12.77
2022-11-24T22:38:29.901Z,13.23
2022-11-24T22:41:05.214Z,12.65
2022-11-24T22:43:33.090Z,12.45
2022-11-24T22:46:04.898Z,12.80
2022-11-24T22:48:31.278Z,12.30
2022-11-24T22:51:08.635Z,13.95
2022-11-24T22:53:35.369Z,14.40
2022-11-24T22:56:06.866Z,14.13
2022-11-24T22:58:34.006Z,14.73
2022-11-24T23:01:11.403Z,14.15
2022-11-24T23:03:38.277Z,13.55
2022-11-24T23:06:08.369Z,13.70
2022-11-24T23:08:35.896Z,14.15
2022-11-24T23:11:08.602Z,14.55
2022-11-24T23:13:35.449Z,13.95
2022-11-24T23:16:04.130Z,13.50
2022-11-24T23:18:31.192Z,13.05
2022-11-24T23:21:14.180Z,12.98
2022-11-24T23:23:41.517Z,14.25
2022-11-24T23:26:11.226Z,14.10
2022-11-24T23:28:38.333Z,13.98
2022-11-24T23:31:10.011Z,13.45
2022-11-24T23:33:36.426Z,13.43
2022-11-24T23:36:05.505Z,13.40
2022-11-24T23:38:32.764Z,13.35
2022-11-24T23:41:00.672Z,12.32
2022-11-24T23:43:27.415Z,13.60
2022-11-24T23:45:53.834Z,12.73
2022-11-24T23:48:20.432Z,13.68
2022-11-24T23:50:46.797Z,13.25
2022-11-24T23:53:13.207Z,13.55
2022-11-24T23:55:39.562Z,13.02
2022-11-24T23:58:06.991Z,13.52
